KGLE/GLE METAR and TAF weather

Enter ICAO airport designator
Station Type Date Time Source
KGLE METAR 2019/05/27 08:50 UTC NOAA

KGLE 270850Z AUTO 00000KT 10SM CLR 23/19 A2992 RMK AO2 T02280192


Station Type Date Time Source
KGLE Decoded METAR 2019/05/27 08:50 UTC NOAA

Gainesville, Gainesville Municipal Airport, TX, United States (KGLE) 33-39-05N 097-11-49W
May 27, 2019 - 04:50 AM EDT / 2019.05.27 0850 UTC
Wind: Calm:0
Visibility: 10 mile(s):0
Sky conditions: clear
Temperature: 73.0 F (22.8 C)
Dew Point: 66.6 F (19.2 C)
Relative Humidity: 80%
Pressure (altimeter): 29.92 in. Hg (1013 hPa)
ob: KGLE 270850Z AUTO 00000KT 10SM CLR 23/19 A2992 RMK AO2 T02280192
cycle: 9

Station Type Date Time Source
KGLE TAF UTC NOAA

Error!

Example: see airport list